Airport View

Enter AWOS ICAO identifier for current METAR.

ex. KFNL

KAUH 210755Z AUTO 36007KT 10SM CLR 05/03 A3012 RMK AO2 T00520033

21 Oct 2020 08:10

Frequency: 121.225

Phone: 402-694-5472

Other Area AWOS: KGRI - KJYR - KHSI - KOLU

TAF KGRI 210540Z 2106/2206 VRB05KT P6SM BKN180 FM211500 13009KT P6SM SCT050 SCT250 FM211800 14012G18KT P6SM SCT035 SCT250 FM212000 14014G19KT P6SM BKN030 FM212300 14008KT P6SM BKN025 FM220200 14008KT P6SM OVC012